createdAt,value
2022-09-22T00:00:23.625Z,92.87
2022-09-22T00:01:23.685Z,92.87
2022-09-22T00:02:23.672Z,92.87
2022-09-22T00:03:23.625Z,92.82
2022-09-22T00:04:23.628Z,92.50
2022-09-22T00:05:23.612Z,92.71
2022-09-22T00:06:23.602Z,92.77
2022-09-22T00:07:23.601Z,92.87
2022-09-22T00:08:23.596Z,93.59
2022-09-22T00:09:23.601Z,93.08
2022-09-22T00:10:23.594Z,92.25
2022-09-22T00:11:23.586Z,92.16
2022-09-22T00:12:23.587Z,92.50
2022-09-22T00:13:23.590Z,91.68
2022-09-22T00:14:23.575Z,92.20
2022-09-22T00:15:23.573Z,92.10
2022-09-22T00:16:23.599Z,92.92
2022-09-22T00:17:23.573Z,92.82
2022-09-22T00:18:23.564Z,94.05
2022-09-22T00:19:23.564Z,93.84
2022-09-22T00:20:23.575Z,93.74
2022-09-22T00:21:23.555Z,94.05
2022-09-22T00:22:23.552Z,94.15
2022-09-22T00:23:23.551Z,94.67
2022-09-22T00:24:23.550Z,94.31
2022-09-22T00:25:23.541Z,94.01
2022-09-22T00:26:23.536Z,93.80
2022-09-22T00:27:23.538Z,92.82
2022-09-22T00:28:23.533Z,92.40
2022-09-22T00:29:23.537Z,92.92
2022-09-22T00:30:23.526Z,92.40
2022-09-22T00:31:23.553Z,91.89
2022-09-22T00:32:23.518Z,92.55
2022-09-22T00:33:23.513Z,92.65
2022-09-22T00:34:23.509Z,92.65
2022-09-22T00:35:23.910Z,92.76
2022-09-22T00:36:23.520Z,92.34
2022-09-22T00:37:23.501Z,91.93
2022-09-22T00:38:23.497Z,91.93
2022-09-22T00:39:23.497Z,92.14
2022-09-22T00:40:23.565Z,92.80
2022-09-22T00:41:23.490Z,92.90
2022-09-22T00:42:23.484Z,92.80
2022-09-22T00:43:23.483Z,93.21
2022-09-22T00:44:23.479Z,93.21
2022-09-22T00:45:23.472Z,93.11
2022-09-22T00:46:23.667Z,93.21
2022-09-22T00:47:23.466Z,92.59
2022-09-22T00:48:23.463Z,92.08
2022-09-22T00:49:23.473Z,92.90
2022-09-22T00:50:23.456Z,92.49
2022-09-22T00:51:23.462Z,92.84
2022-09-22T00:52:23.466Z,93.25
2022-09-22T00:53:23.449Z,93.25
2022-09-22T00:54:23.440Z,93.98
2022-09-22T00:55:23.442Z,93.87
2022-09-22T00:56:23.437Z,94.08
2022-09-22T00:57:23.437Z,94.49
2022-09-22T00:58:23.440Z,94.28
2022-09-22T00:59:23.425Z,94.59
2022-09-22T01:00:23.421Z,94.70
2022-09-22T01:01:23.591Z,94.49
2022-09-22T01:02:23.413Z,94.38
2022-09-22T01:03:27.572Z,94.49
2022-09-22T01:04:23.411Z,94.70
2022-09-22T01:05:23.408Z,94.80
2022-09-22T01:06:23.401Z,95.10
2022-09-22T01:07:23.401Z,94.90
2022-09-22T01:08:23.415Z,94.80
2022-09-22T01:09:23.391Z,94.28
2022-09-22T01:10:23.384Z,94.38
2022-09-22T01:11:23.383Z,94.28
2022-09-22T01:12:23.378Z,94.08
2022-09-22T01:13:23.384Z,94.18
2022-09-22T01:14:23.371Z,94.18
2022-09-22T01:15:23.372Z,94.28
2022-09-22T01:16:23.456Z,94.38
2022-09-22T01:17:23.390Z,94.43
2022-09-22T01:18:23.357Z,94.18
2022-09-22T01:19:23.358Z,94.53
2022-09-22T01:20:23.353Z,94.32
2022-09-22T01:21:23.348Z,94.43
2022-09-22T01:22:23.344Z,94.38
2022-09-22T01:23:23.342Z,94.59
2022-09-22T01:24:23.355Z,94.90
2022-09-22T01:25:23.336Z,94.80
2022-09-22T01:26:23.338Z,94.23
2022-09-22T01:27:23.334Z,94.64
2022-09-22T01:28:23.326Z,94.43
2022-09-22T01:29:23.324Z,94.23
2022-09-22T01:30:23.318Z,94.32
2022-09-22T01:31:23.354Z,94.23
2022-09-22T01:32:23.313Z,94.32
2022-09-22T01:33:23.310Z,94.43
2022-09-22T01:34:23.302Z,94.23
2022-09-22T01:35:23.750Z,94.23
2022-09-22T01:36:23.295Z,94.47
2022-09-22T01:37:23.294Z,94.74
2022-09-22T01:38:23.288Z,94.53
2022-09-22T01:39:23.283Z,94.43
2022-09-22T01:40:23.314Z,94.32
2022-09-22T01:41:23.285Z,94.64
2022-09-22T01:42:23.271Z,94.89
2022-09-22T01:43:23.273Z,94.84
2022-09-22T01:44:23.265Z,94.64
2022-09-22T01:45:23.265Z,94.74
2022-09-22T01:46:23.360Z,94.43
2022-09-22T01:47:23.261Z,94.32
2022-09-22T01:48:23.255Z,94.32
2022-09-22T01:49:23.254Z,94.53
2022-09-22T01:50:23.244Z,94.27
2022-09-22T01:51:23.241Z,94.78
2022-09-22T01:52:23.240Z,94.74
2022-09-22T01:53:23.239Z,94.95
2022-09-22T01:54:23.229Z,95.92
2022-09-22T01:55:23.230Z,95.98
2022-09-22T01:56:23.267Z,96.08
2022-09-22T01:57:23.223Z,96.03
2022-09-22T01:58:23.218Z,96.28
2022-09-22T01:59:23.218Z,96.14
2022-09-22T02:00:23.210Z,95.83
2022-09-22T02:01:23.309Z,96.03
2022-09-22T02:02:23.371Z,95.21
2022-09-22T02:03:23.198Z,94.38
2022-09-22T02:04:23.195Z,93.91
2022-09-22T02:05:23.194Z,92.94
2022-09-22T02:06:23.187Z,92.68
2022-09-22T02:07:23.289Z,92.78
2022-09-22T02:08:23.181Z,92.72
2022-09-22T02:09:23.182Z,92.10
2022-09-22T02:10:23.175Z,92.10
2022-09-22T02:11:23.173Z,92.82
2022-09-22T02:12:23.186Z,92.61
2022-09-22T02:13:23.160Z,93.24
2022-09-22T02:14:23.159Z,93.34
2022-09-22T02:15:23.161Z,93.96
2022-09-22T02:16:23.217Z,94.37
2022-09-22T02:17:23.147Z,94.47
2022-09-22T02:18:23.148Z,94.68
2022-09-22T02:19:23.141Z,94.89
2022-09-22T02:20:23.135Z,95.09
2022-09-22T02:21:23.131Z,95.30
2022-09-22T02:22:23.130Z,95.36
2022-09-22T02:23:23.127Z,95.15
2022-09-22T02:24:23.124Z,95.05
2022-09-22T02:25:23.116Z,94.84
2022-09-22T02:26:23.127Z,94.43
2022-09-22T02:27:23.108Z,94.23
2022-09-22T02:28:23.128Z,94.57
2022-09-22T02:29:23.101Z,94.06
2022-09-22T02:30:23.099Z,94.02
2022-09-22T02:31:23.114Z,94.06
2022-09-22T02:32:23.090Z,94.06
2022-09-22T02:33:23.090Z,94.17
2022-09-22T02:34:23.084Z,93.75
2022-09-22T02:35:23.085Z,94.27
2022-09-22T02:36:23.099Z,94.37
2022-09-22T02:37:23.075Z,94.12
2022-09-22T02:38:23.066Z,94.47
2022-09-22T02:39:23.067Z,94.57
2022-09-22T02:40:23.103Z,94.47
2022-09-22T02:41:23.059Z,94.23
2022-09-22T02:42:23.057Z,94.17
2022-09-22T02:43:23.047Z,93.19
2022-09-22T02:44:23.063Z,93.03
2022-09-22T02:45:23.043Z,92.61
2022-09-22T02:46:23.092Z,92.61
2022-09-22T02:47:23.042Z,92.21
2022-09-22T02:48:23.038Z,93.18
2022-09-22T02:49:23.027Z,92.97
2022-09-22T02:50:23.025Z,93.38
2022-09-22T02:51:23.017Z,93.18
2022-09-22T02:52:23.019Z,93.07
2022-09-22T02:53:23.011Z,93.79
2022-09-22T02:54:23.014Z,94.00
2022-09-22T02:55:23.004Z,94.42
2022-09-22T02:56:23.003Z,94.72
2022-09-22T02:57:22.996Z,94.31
2022-09-22T02:58:22.993Z,94.82
2022-09-22T02:59:22.993Z,94.82
2022-09-22T03:00:23.007Z,95.34
2022-09-22T03:01:23.035Z,95.24
2022-09-22T03:02:22.979Z,95.86
2022-09-22T03:03:22.973Z,95.92
2022-09-22T03:04:23.046Z,95.92
2022-09-22T03:05:22.966Z,94.93
2022-09-22T03:06:22.971Z,94.37
2022-09-22T03:07:22.957Z,94.31
2022-09-22T03:08:22.955Z,94.00
2022-09-22T03:09:22.954Z,94.21
2022-09-22T03:10:22.981Z,94.21
2022-09-22T03:11:22.948Z,93.90
2022-09-22T03:12:22.941Z,94.56
2022-09-22T03:13:22.942Z,94.62
2022-09-22T03:14:22.935Z,94.67
2022-09-22T03:15:27.037Z,94.93
2022-09-22T03:16:22.941Z,94.82
2022-09-22T03:17:22.926Z,95.45
2022-09-22T03:18:22.919Z,95.14
2022-09-22T03:19:22.917Z,95.96
2022-09-22T03:20:22.914Z,95.34
2022-09-22T03:21:22.907Z,95.24
2022-09-22T03:22:22.902Z,94.52
2022-09-22T03:23:22.895Z,94.72
2022-09-22T03:24:22.892Z,94.62
2022-09-22T03:25:22.889Z,94.31
2022-09-22T03:26:22.885Z,94.31
2022-09-22T03:27:22.881Z,94.31
2022-09-22T03:28:22.883Z,94.62
2022-09-22T03:29:22.873Z,94.62
2022-09-22T03:30:22.873Z,95.03
2022-09-22T03:31:22.926Z,95.03
2022-09-22T03:32:22.884Z,95.92
2022-09-22T03:33:22.860Z,96.12
2022-09-22T03:34:22.860Z,95.46
2022-09-22T03:35:22.856Z,96.12
2022-09-22T03:36:23.051Z,96.02
2022-09-22T03:37:22.845Z,95.46
2022-09-22T03:38:22.839Z,95.87
2022-09-22T03:39:22.837Z,95.77
2022-09-22T03:40:22.904Z,95.36
2022-09-22T03:41:22.831Z,94.95
2022-09-22T03:42:22.825Z,94.49
2022-09-22T03:43:22.821Z,93.09
2022-09-22T03:44:22.821Z,93.09
2022-09-22T03:45:22.812Z,93.09
2022-09-22T03:46:22.883Z,93.19
2022-09-22T03:47:22.805Z,92.68
2022-09-22T03:48:22.824Z,91.64
2022-09-22T03:49:22.798Z,91.13
2022-09-22T03:50:22.794Z,91.48
2022-09-22T03:51:22.792Z,90.66
2022-09-22T03:52:22.788Z,91.28
2022-09-22T03:53:22.782Z,90.97
2022-09-22T03:54:22.779Z,91.32
2022-09-22T03:55:22.775Z,91.42
2022-09-22T03:56:22.774Z,91.22
2022-09-22T03:57:22.768Z,91.42
2022-09-22T03:58:22.763Z,91.98
2022-09-22T03:59:22.762Z,92.29
2022-09-22T04:00:22.781Z,93.43
2022-09-22T04:01:22.794Z,94.67
2022-09-22T04:02:22.836Z,94.67
2022-09-22T04:03:22.744Z,94.35
2022-09-22T04:04:22.767Z,94.46
2022-09-22T04:05:22.743Z,94.87
2022-09-22T04:06:22.741Z,94.67
2022-09-22T04:07:22.730Z,94.46
2022-09-22T04:08:22.726Z,94.35
2022-09-22T04:09:22.724Z,94.67
2022-09-22T04:10:22.722Z,94.46
2022-09-22T04:11:22.719Z,94.56
2022-09-22T04:12:22.714Z,94.67
2022-09-22T04:13:22.705Z,93.73
2022-09-22T04:14:22.703Z,94.46
2022-09-22T04:15:22.698Z,94.67
2022-09-22T04:16:22.730Z,94.67
2022-09-22T04:17:22.691Z,94.25
2022-09-22T04:18:22.705Z,94.93
2022-09-22T04:19:22.683Z,95.24
2022-09-22T04:20:22.696Z,95.96
2022-09-22T04:21:22.672Z,95.45
2022-09-22T04:22:22.670Z,95.45
2022-09-22T04:23:22.667Z,94.62
2022-09-22T04:24:22.664Z,94.42
2022-09-22T04:25:22.664Z,93.49
2022-09-22T04:26:22.654Z,92.25
2022-09-22T04:27:22.649Z,91.46
2022-09-22T04:28:22.650Z,91.56
2022-09-22T04:29:22.642Z,91.26
2022-09-22T04:30:22.639Z,91.36
2022-09-22T04:31:22.631Z,92.02
2022-09-22T04:32:22.630Z,92.33
2022-09-22T04:33:22.624Z,93.16
2022-09-22T04:34:22.621Z,92.74
2022-09-22T04:35:22.615Z,92.79
2022-09-22T04:36:22.780Z,92.68
2022-09-22T04:37:22.609Z,93.30
2022-09-22T04:38:22.607Z,92.79
2022-09-22T04:39:23.987Z,93.41
2022-09-22T04:40:22.728Z,94.03
2022-09-22T04:41:22.592Z,94.34
2022-09-22T04:42:22.588Z,94.40
2022-09-22T04:43:22.589Z,94.54
2022-09-22T04:44:22.589Z,94.54
2022-09-22T04:45:22.579Z,94.34
2022-09-22T04:46:22.695Z,94.13
2022-09-22T04:47:22.573Z,94.03
2022-09-22T04:48:22.575Z,94.65
2022-09-22T04:49:22.560Z,94.44
2022-09-22T04:50:22.567Z,94.85
2022-09-22T04:51:22.552Z,94.65
2022-09-22T04:52:22.571Z,94.75
2022-09-22T04:53:22.551Z,94.65
2022-09-22T04:54:22.539Z,95.06
2022-09-22T04:55:22.539Z,94.54
2022-09-22T04:56:22.534Z,94.59
2022-09-22T04:57:22.527Z,94.59
2022-09-22T04:58:22.536Z,94.79
2022-09-22T04:59:22.526Z,94.18
2022-09-22T05:00:22.533Z,94.38
2022-09-22T05:01:22.631Z,94.18
2022-09-22T05:02:22.522Z,94.38
2022-09-22T05:03:22.575Z,94.28
2022-09-22T05:04:22.505Z,93.97
2022-09-22T05:05:22.516Z,94.69
2022-09-22T05:06:22.505Z,94.59
2022-09-22T05:07:22.494Z,94.59
2022-09-22T05:08:22.507Z,94.48
2022-09-22T05:09:22.497Z,94.63
2022-09-22T05:10:22.490Z,94.48
2022-09-22T05:11:22.476Z,95.00
2022-09-22T05:12:22.492Z,95.21
2022-09-22T05:13:22.473Z,95.31
2022-09-22T05:14:26.317Z,95.62
2022-09-22T05:15:22.457Z,95.83
2022-09-22T05:16:22.549Z,95.42
2022-09-22T05:17:22.446Z,95.62
2022-09-22T05:18:22.446Z,95.42
2022-09-22T05:19:22.446Z,96.03
2022-09-22T05:20:22.439Z,95.94
2022-09-22T05:21:22.435Z,95.94
2022-09-22T05:22:22.426Z,96.20
2022-09-22T05:23:22.424Z,96.20
2022-09-22T05:24:22.441Z,95.89
2022-09-22T05:25:22.414Z,95.48
2022-09-22T05:26:22.411Z,95.10
2022-09-22T05:27:22.405Z,94.69
2022-09-22T05:28:22.404Z,94.59
2022-09-22T05:29:27.121Z,94.48
2022-09-22T05:30:22.400Z,94.48
2022-09-22T05:31:22.447Z,94.59
2022-09-22T05:32:22.385Z,94.79
2022-09-22T05:33:22.381Z,94.48
2022-09-22T05:34:22.375Z,94.90
2022-09-22T05:35:22.371Z,95.10
2022-09-22T05:36:22.721Z,95.62
2022-09-22T05:37:22.363Z,95.52
2022-09-22T05:38:22.360Z,96.14
2022-09-22T05:39:22.354Z,95.94
2022-09-22T05:40:22.485Z,96.45
2022-09-22T05:41:22.346Z,95.73
2022-09-22T05:42:22.347Z,96.09
2022-09-22T05:43:22.339Z,96.09
2022-09-22T05:44:22.340Z,96.30
2022-09-22T05:45:22.331Z,96.30
2022-09-22T05:46:22.325Z,95.78
2022-09-22T05:47:22.321Z,96.30
2022-09-22T05:48:22.318Z,96.09
2022-09-22T05:49:22.313Z,95.48
2022-09-22T05:50:22.313Z,95.27
2022-09-22T05:51:22.306Z,95.37
2022-09-22T05:52:22.302Z,95.17
2022-09-22T05:53:22.298Z,94.96
2022-09-22T05:54:23.418Z,95.06
2022-09-22T05:55:22.292Z,95.06
2022-09-22T05:56:22.303Z,95.17
2022-09-22T05:57:22.286Z,95.37
2022-09-22T05:58:22.279Z,95.99
2022-09-22T05:59:22.275Z,96.30
2022-09-22T06:00:22.273Z,95.89
2022-09-22T06:01:22.420Z,96.51
2022-09-22T06:02:25.972Z,96.41
2022-09-22T06:03:22.268Z,97.13
2022-09-22T06:04:22.251Z,96.77
2022-09-22T06:05:22.287Z,97.08
2022-09-22T06:06:22.241Z,97.19
2022-09-22T06:07:22.236Z,97.50
2022-09-22T06:08:22.234Z,97.25
2022-09-22T06:09:22.229Z,97.45
2022-09-22T06:10:22.229Z,97.66
2022-09-22T06:11:22.223Z,97.55
2022-09-22T06:12:22.239Z,97.45
2022-09-22T06:13:22.216Z,97.34
2022-09-22T06:14:22.212Z,97.41
2022-09-22T06:15:22.203Z,97.92
2022-09-22T06:16:22.262Z,97.66
2022-09-22T06:17:22.195Z,97.92
2022-09-22T06:18:24.809Z,97.72
2022-09-22T06:19:22.187Z,98.33
2022-09-22T06:20:22.185Z,98.23
2022-09-22T06:21:22.180Z,98.91
2022-09-22T06:22:22.176Z,98.80
2022-09-22T06:23:22.171Z,98.80
2022-09-22T06:24:22.172Z,98.66
2022-09-22T06:25:22.162Z,98.66
2022-09-22T06:26:22.160Z,98.55
2022-09-22T06:27:22.155Z,98.24
2022-09-22T06:28:22.183Z,98.30
2022-09-22T06:29:22.152Z,98.50
2022-09-22T06:30:22.148Z,98.61
2022-09-22T06:31:22.208Z,98.71
2022-09-22T06:32:22.137Z,98.61
2022-09-22T06:33:22.130Z,98.92
2022-09-22T06:34:22.132Z,98.71
2022-09-22T06:35:22.122Z,98.77
2022-09-22T06:36:22.117Z,98.57
2022-09-22T06:37:22.115Z,98.67
2022-09-22T06:38:22.113Z,98.57
2022-09-22T06:39:22.108Z,98.46
2022-09-22T06:40:22.119Z,98.52
2022-09-22T06:41:22.106Z,98.11
2022-09-22T06:42:22.093Z,98.52
2022-09-22T06:43:22.093Z,98.93
2022-09-22T06:44:22.107Z,98.93
2022-09-22T06:45:22.085Z,98.68
2022-09-22T06:46:22.080Z,98.58
2022-09-22T06:47:22.075Z,98.68
2022-09-22T06:48:22.069Z,98.68
2022-09-22T06:49:22.067Z,98.88
2022-09-22T06:50:22.062Z,98.74
2022-09-22T06:51:22.062Z,98.94
2022-09-22T06:52:22.055Z,99.35
2022-09-22T06:53:25.481Z,98.94
2022-09-22T06:54:24.787Z,99.15
2022-09-22T06:55:22.044Z,99.21
2022-09-22T06:56:22.038Z,99.05
2022-09-22T06:57:22.035Z,99.00
2022-09-22T06:58:22.035Z,99.00
2022-09-22T06:59:22.252Z,99.10
2022-09-22T07:00:22.041Z,99.00
2022-09-22T07:01:22.142Z,99.10
2022-09-22T07:02:22.082Z,99.21
2022-09-22T07:03:22.015Z,99.16
2022-09-22T07:04:22.007Z,99.26
2022-09-22T07:05:22.005Z,99.37
2022-09-22T07:06:22.001Z,99.21
2022-09-22T07:07:21.997Z,99.16
2022-09-22T07:08:21.993Z,98.85
2022-09-22T07:09:21.993Z,98.91
2022-09-22T07:10:21.986Z,98.70
2022-09-22T07:11:21.985Z,98.80
2022-09-22T07:12:21.978Z,99.07
2022-09-22T07:13:22.002Z,98.76
2022-09-22T07:14:21.978Z,99.07
2022-09-22T07:15:21.968Z,99.17
2022-09-22T07:16:22.108Z,99.17
2022-09-22T07:17:21.964Z,99.12
2022-09-22T07:18:21.960Z,99.12
2022-09-22T07:19:21.955Z,98.82
2022-09-22T07:20:21.949Z,98.82
2022-09-22T07:21:21.950Z,99.08
2022-09-22T07:22:21.945Z,98.77
2022-09-22T07:23:21.945Z,98.77
2022-09-22T07:24:21.937Z,98.83
2022-09-22T07:25:21.935Z,98.36
2022-09-22T07:26:22.266Z,98.83
2022-09-22T07:27:21.927Z,98.83
2022-09-22T07:28:21.923Z,98.72
2022-09-22T07:29:21.922Z,98.88
2022-09-22T07:30:21.920Z,98.68
2022-09-22T07:31:26.304Z,98.88
2022-09-22T07:32:21.938Z,98.37
2022-09-22T07:33:21.910Z,98.47
2022-09-22T07:34:21.908Z,98.58
2022-09-22T07:35:21.907Z,98.63
2022-09-22T07:36:21.905Z,99.09
2022-09-22T07:37:21.904Z,99.04
2022-09-22T07:38:21.893Z,98.74
2022-09-22T07:39:22.145Z,98.83
2022-09-22T07:40:21.963Z,99.41
2022-09-22T07:41:21.889Z,99.25
2022-09-22T07:42:21.885Z,99.10
2022-09-22T07:43:21.885Z,99.30
2022-09-22T07:44:21.879Z,98.90
2022-09-22T07:45:21.876Z,98.90
2022-09-22T07:46:21.921Z,98.85
2022-09-22T07:47:21.871Z,98.65
2022-09-22T07:48:21.886Z,98.65
2022-09-22T07:49:21.875Z,98.60
2022-09-22T07:50:21.889Z,98.39
2022-09-22T07:51:21.862Z,98.19
2022-09-22T07:52:21.862Z,98.60
2022-09-22T07:53:21.860Z,98.49
2022-09-22T07:54:21.855Z,98.04
2022-09-22T07:55:21.853Z,98.14
2022-09-22T07:56:21.848Z,97.74
2022-09-22T07:57:21.859Z,97.53
2022-09-22T07:58:21.845Z,97.74
2022-09-22T07:59:21.845Z,97.99
2022-09-22T08:00:21.885Z,97.99
2022-09-22T08:01:21.842Z,97.33
2022-09-22T08:02:21.897Z,96.92
2022-09-22T08:03:21.835Z,96.62
2022-09-22T08:04:21.904Z,96.31
2022-09-22T08:05:21.836Z,96.01
2022-09-22T08:06:23.693Z,95.56
2022-09-22T08:07:21.831Z,95.25
2022-09-22T08:08:21.824Z,95.76
2022-09-22T08:09:21.838Z,94.70
2022-09-22T08:10:21.827Z,95.20
2022-09-22T08:11:21.825Z,94.79
2022-09-22T08:12:21.826Z,94.75
2022-09-22T08:13:21.819Z,94.85
2022-09-22T08:14:21.814Z,94.04
2022-09-22T08:15:26.154Z,93.22
2022-09-22T08:16:21.827Z,93.28
2022-09-22T08:17:21.812Z,92.97
2022-09-22T08:18:21.805Z,93.07
2022-09-22T08:19:21.805Z,91.96
2022-09-22T08:20:21.821Z,91.40
2022-09-22T08:21:21.801Z,91.20
2022-09-22T08:22:21.799Z,91.61
2022-09-22T08:23:21.800Z,91.75
2022-09-22T08:24:22.065Z,91.96
2022-09-22T08:25:21.794Z,91.81
2022-09-22T08:26:21.792Z,90.94
2022-09-22T08:27:21.792Z,90.94
2022-09-22T08:28:21.787Z,91.75
2022-09-22T08:29:21.786Z,91.75
2022-09-22T08:30:21.785Z,91.85
2022-09-22T08:31:21.879Z,90.22
2022-09-22T08:32:21.779Z,89.92
2022-09-22T08:33:21.783Z,90.12
2022-09-22T08:34:21.779Z,90.22
2022-09-22T08:35:21.775Z,91.96
2022-09-22T08:36:21.787Z,91.35
2022-09-22T08:37:21.772Z,91.85
2022-09-22T08:38:21.768Z,91.85
2022-09-22T08:39:21.782Z,92.16
2022-09-22T08:40:21.842Z,91.96
2022-09-22T08:41:21.782Z,91.55
2022-09-22T08:42:21.793Z,91.96
2022-09-22T08:43:21.764Z,92.16
2022-09-22T08:44:22.114Z,91.96
2022-09-22T08:45:26.745Z,91.24
2022-09-22T08:46:21.793Z,91.35
2022-09-22T08:47:21.748Z,91.96
2022-09-22T08:48:21.747Z,91.03
2022-09-22T08:49:21.746Z,91.65
2022-09-22T08:50:21.740Z,91.96
2022-09-22T08:51:21.743Z,91.85
2022-09-22T08:52:21.760Z,91.55
2022-09-22T08:53:21.736Z,91.96
2022-09-22T08:54:21.734Z,91.55
2022-09-22T08:55:21.734Z,91.65
2022-09-22T08:56:21.732Z,91.14
2022-09-22T08:57:21.732Z,91.65
2022-09-22T08:58:21.723Z,91.50
2022-09-22T08:59:21.722Z,91.03
2022-09-22T09:00:21.751Z,91.24
2022-09-22T09:01:21.812Z,90.94
2022-09-22T09:02:21.893Z,91.65
2022-09-22T09:03:21.715Z,91.85
2022-09-22T09:04:21.719Z,91.65
2022-09-22T09:05:21.712Z,91.55
2022-09-22T09:06:21.707Z,91.75
2022-09-22T09:07:21.705Z,91.03
2022-09-22T09:08:21.742Z,91.96
2022-09-22T09:09:21.703Z,91.35
2022-09-22T09:10:21.698Z,91.14
2022-09-22T09:12:21.694Z,92.32
2022-09-22T09:13:21.693Z,92.87
2022-09-22T09:14:21.691Z,93.03
2022-09-22T09:15:21.693Z,93.03
2022-09-22T09:16:21.752Z,93.13
2022-09-22T09:17:21.690Z,93.24
2022-09-22T09:18:21.681Z,92.93
2022-09-22T09:19:21.683Z,91.91
2022-09-22T09:20:21.677Z,91.30
2022-09-22T09:21:21.687Z,92.01
2022-09-22T09:22:21.675Z,92.27
2022-09-22T09:23:21.897Z,93.33
2022-09-22T09:25:22.380Z,93.80
2022-09-22T09:26:21.674Z,93.19
2022-09-22T09:27:21.664Z,91.97
2022-09-22T09:28:26.922Z,91.46
2022-09-22T09:29:21.663Z,91.36
2022-09-22T09:30:21.660Z,92.13
2022-09-22T09:31:21.800Z,91.72
2022-09-22T09:32:21.658Z,91.83
2022-09-22T09:33:21.650Z,91.87
2022-09-22T09:34:21.647Z,91.62
2022-09-22T09:35:21.650Z,91.52
2022-09-22T09:36:21.645Z,91.11
2022-09-22T09:37:21.644Z,90.40
2022-09-22T09:38:21.637Z,90.03
2022-09-22T09:39:21.639Z,89.69
2022-09-22T09:40:21.694Z,89.69
2022-09-22T09:41:21.641Z,88.87
2022-09-22T09:42:21.634Z,88.26
2022-09-22T09:43:21.632Z,88.87
2022-09-22T09:44:21.629Z,87.75
2022-09-22T09:45:21.626Z,88.00
2022-09-22T09:46:21.673Z,88.98
2022-09-22T09:47:21.624Z,90.40
2022-09-22T09:48:21.619Z,91.52
2022-09-22T09:49:21.970Z,90.09
2022-09-22T09:50:21.616Z,88.87
2022-09-22T09:51:21.615Z,86.94
2022-09-22T09:52:21.612Z,85.61
2022-09-22T09:53:21.610Z,87.45
2022-09-22T09:54:21.605Z,87.55
2022-09-22T09:55:26.689Z,87.35
2022-09-22T09:56:21.620Z,86.63
2022-09-22T09:57:27.479Z,86.74
2022-09-22T09:58:21.599Z,87.45
2022-09-22T09:59:21.601Z,87.55
2022-09-22T10:00:21.601Z,86.94
2022-09-22T10:01:21.623Z,87.00
2022-09-22T10:02:21.592Z,87.00
2022-09-22T10:03:21.643Z,84.97
2022-09-22T10:04:21.587Z,84.45
2022-09-22T10:05:21.588Z,85.47
2022-09-22T10:06:21.583Z,85.58
2022-09-22T10:07:21.673Z,86.90
2022-09-22T10:08:21.581Z,86.59
2022-09-22T10:09:21.580Z,86.19
2022-09-22T10:10:21.579Z,86.59
2022-09-22T10:11:21.576Z,85.78
2022-09-22T10:12:21.624Z,86.69
2022-09-22T10:13:21.574Z,88.93
2022-09-22T10:14:21.570Z,88.53
2022-09-22T10:15:21.570Z,88.48
2022-09-22T10:16:21.688Z,87.81
2022-09-22T10:17:21.568Z,86.96
2022-09-22T10:18:21.558Z,86.39
2022-09-22T10:19:21.557Z,85.53
2022-09-22T10:20:21.554Z,86.25
2022-09-22T10:21:21.558Z,84.21
2022-09-22T10:22:21.553Z,84.21
2022-09-22T10:23:21.558Z,84.28
2022-09-22T10:24:21.549Z,84.99
2022-09-22T10:25:21.548Z,84.78
2022-09-22T10:26:21.545Z,86.04
2022-09-22T10:27:21.550Z,85.74
2022-09-22T10:28:21.570Z,84.82
2022-09-22T10:29:21.541Z,83.97
2022-09-22T10:30:21.544Z,84.07
2022-09-22T10:31:21.650Z,84.48
2022-09-22T10:32:21.536Z,83.56
2022-09-22T10:33:21.536Z,83.15
2022-09-22T10:34:21.541Z,83.76
2022-09-22T10:35:21.534Z,83.46
2022-09-22T10:36:21.525Z,84.17
2022-09-22T10:37:21.525Z,83.67
2022-09-22T10:38:21.525Z,84.07
2022-09-22T10:39:21.520Z,82.95
2022-09-22T10:40:21.589Z,81.73
2022-09-22T10:41:21.519Z,82.65
2022-09-22T10:42:21.514Z,82.85
2022-09-22T10:43:21.519Z,82.65
2022-09-22T10:44:38.708Z,83.26
2022-09-22T10:45:21.514Z,83.36
2022-09-22T10:46:21.565Z,82.85
2022-09-22T10:47:26.156Z,83.32
2022-09-22T10:48:21.507Z,82.85
2022-09-22T10:49:21.857Z,82.31
2022-09-22T10:50:21.501Z,82.81
2022-09-22T10:51:21.505Z,82.00
2022-09-22T10:52:21.502Z,81.66
2022-09-22T10:53:21.495Z,81.05
2022-09-22T10:54:21.496Z,81.70
2022-09-22T10:55:21.493Z,81.76
2022-09-22T10:56:21.491Z,80.37
2022-09-22T10:57:21.490Z,80.13
2022-09-22T10:58:21.491Z,81.15
2022-09-22T10:59:21.509Z,81.86
2022-09-22T11:00:21.512Z,80.74
2022-09-22T11:01:21.526Z,81.15
2022-09-22T11:02:21.495Z,82.26
2022-09-22T11:03:21.480Z,81.09
2022-09-22T11:04:21.527Z,81.45
2022-09-22T11:05:21.477Z,81.96
2022-09-22T11:06:21.476Z,80.94
2022-09-22T11:07:21.474Z,80.54
2022-09-22T11:08:21.471Z,79.93
2022-09-22T11:09:21.474Z,79.93
2022-09-22T11:10:21.470Z,80.64
2022-09-22T11:11:21.466Z,80.33
2022-09-22T11:12:21.467Z,80.27
2022-09-22T11:13:21.462Z,81.49
2022-09-22T11:14:21.461Z,80.44
2022-09-22T11:15:21.458Z,79.72
2022-09-22T11:16:21.476Z,80.44
2022-09-22T11:17:21.455Z,79.93
2022-09-22T11:18:21.456Z,78.81
2022-09-22T11:19:21.453Z,79.12
2022-09-22T11:20:21.451Z,78.85
2022-09-22T11:21:21.453Z,80.54
2022-09-22T11:22:21.451Z,80.17
2022-09-22T11:23:21.449Z,80.13
2022-09-22T11:24:21.451Z,79.46
2022-09-22T11:25:21.444Z,77.73
2022-09-22T11:26:21.442Z,79.46
2022-09-22T11:27:21.438Z,80.47
2022-09-22T11:28:21.441Z,81.05
2022-09-22T11:29:21.438Z,82.10
2022-09-22T11:30:21.435Z,83.18
2022-09-22T11:31:21.433Z,81.39
2022-09-22T11:32:21.453Z,80.07
2022-09-22T11:33:21.432Z,79.77
2022-09-22T11:34:21.431Z,78.20
2022-09-22T11:35:21.429Z,77.80
2022-09-22T11:36:21.425Z,78.00
2022-09-22T11:37:21.425Z,78.51
2022-09-22T11:38:21.422Z,77.80
2022-09-22T11:39:21.419Z,78.00
2022-09-22T11:40:21.484Z,78.61
2022-09-22T11:41:21.417Z,78.00
2022-09-22T11:42:21.418Z,78.61
2022-09-22T11:43:21.416Z,78.91
2022-09-22T11:44:21.417Z,78.41
2022-09-22T11:45:21.411Z,77.90
2022-09-22T11:46:21.544Z,76.48
2022-09-22T11:47:21.408Z,77.39
2022-09-22T11:48:21.433Z,77.19
2022-09-22T11:49:21.858Z,77.80
2022-09-22T11:50:21.505Z,77.80
2022-09-22T11:51:21.401Z,78.81
2022-09-22T11:52:21.400Z,78.61
2022-09-22T11:53:21.397Z,75.87
2022-09-22T11:54:21.396Z,76.24
2022-09-22T11:55:21.395Z,77.39
2022-09-22T11:56:21.396Z,77.80
2022-09-22T11:57:21.394Z,76.58
2022-09-22T11:58:21.393Z,77.09
2022-09-22T11:59:21.393Z,77.70
2022-09-22T12:00:21.489Z,78.10
2022-09-22T12:01:21.387Z,78.37
2022-09-22T12:02:21.460Z,77.09
2022-09-22T12:03:21.551Z,77.90
2022-09-22T12:04:21.402Z,76.37
2022-09-22T12:05:21.380Z,77.19
2022-09-22T12:06:21.378Z,77.59
2022-09-22T12:07:21.376Z,77.36
2022-09-22T12:08:21.380Z,77.15
2022-09-22T12:09:21.382Z,77.09
2022-09-22T12:10:21.375Z,77.97
2022-09-22T12:11:21.371Z,78.91
2022-09-22T12:12:21.372Z,79.28
2022-09-22T12:13:21.378Z,77.76
2022-09-22T12:14:21.365Z,77.19
2022-09-22T12:15:21.363Z,79.22
2022-09-22T12:16:21.362Z,78.91
2022-09-22T12:17:23.481Z,78.81
2022-09-22T12:18:21.361Z,79.02
2022-09-22T12:19:22.165Z,77.90
2022-09-22T12:20:21.430Z,76.07
2022-09-22T12:21:21.356Z,77.49
2022-09-22T12:22:21.359Z,77.19
2022-09-22T12:23:21.353Z,77.19
2022-09-22T12:24:21.353Z,77.39
2022-09-22T12:25:44.642Z,77.19
2022-09-22T12:26:21.346Z,76.88
2022-09-22T12:27:21.345Z,77.59
2022-09-22T12:28:21.345Z,78.20
2022-09-22T12:29:21.347Z,78.30
2022-09-22T12:30:21.343Z,77.70
2022-09-22T12:31:21.499Z,77.39
2022-09-22T12:32:21.341Z,78.00
2022-09-22T12:33:21.337Z,77.90
2022-09-22T12:34:21.339Z,76.68
2022-09-22T12:35:21.334Z,76.17
2022-09-22T12:36:21.404Z,77.29
2022-09-22T12:37:21.331Z,77.19
2022-09-22T12:38:21.334Z,77.29
2022-09-22T12:39:21.328Z,77.19
2022-09-22T12:40:21.371Z,76.51
2022-09-22T12:41:21.333Z,78.00
2022-09-22T12:42:21.329Z,79.42
2022-09-22T12:43:21.322Z,79.72
2022-09-22T12:44:21.324Z,78.71
2022-09-22T12:45:21.322Z,77.70
2022-09-22T12:46:21.382Z,76.07
2022-09-22T12:47:21.323Z,77.59
2022-09-22T12:48:21.316Z,78.10
2022-09-22T12:49:21.718Z,78.41
2022-09-22T12:50:21.401Z,79.32
2022-09-22T12:51:21.313Z,77.70
2022-09-22T12:52:21.338Z,77.49
2022-09-22T12:53:21.308Z,77.19
2022-09-22T12:54:21.313Z,78.30